Flight Track Log - Related Links

Times and Time Zones

All times are in EST time to prevent confusion due to time zone crossing. See the UAL1618 flight status page for this flight to view local times or setup timezone preferences in your user account.

Time Position Orientation Groundspeed Altitude Reporting Facility
EST Latitude Longitude Course Direction KTS MPH feet Rate Location/Type
Fri 09:30:23 PM 27.9667 -82.5500 180° South 172 198 600  Level Tampa TRACON
Fri 09:31:11 PM 27.9167 -82.5500 180° South 201 231 3,000 3,412 Climbing Tampa TRACON
Fri 09:32:05 PM 27.8833 -82.6000 233° Southwest 245 282 6,400 3,947 Climbing Tampa TRACON
Fri 09:33:05 PM 27.9333 -82.6333 330° Northwest 299 344 10,500 3,136 Climbing Tampa TRACON
Fri 09:34:17 PM 28.0500 -82.6333 360° North 378 435 13,300 2,591 Climbing Tampa TRACON
Fri 09:35:17 PM 28.1500 -82.6167 North 411 473 16,200 2,879 Climbing Tampa TRACON
Fri 09:37:35 PM 28.4147 -82.6069 North 436 502 22,800 2,697 Climbing Jacksonville Center
Fri 09:38:35 PM 28.5356 -82.5972 North 442 509 25,100 1,600 Climbing Jacksonville Center
Fri 09:39:35 PM 28.6589 -82.5897 North 442 509 26,000 600 Climbing Jacksonville Center
Fri 09:40:35 PM 28.7861 -82.6058 354° North 430 495 26,300 900 Climbing Jacksonville Center
Fri 09:41:35 PM 28.9072 -82.6222 353° North 430 495 27,800 1,550 Climbing Jacksonville Center
Fri 09:42:35 PM 29.0325 -82.6383 354° North 442 509 29,400 1,850 Climbing Jacksonville Center
Fri 09:43:35 PM 29.1619 -82.6572 353° North 449 517 31,500 2,150 Climbing Jacksonville Center
Fri 09:44:35 PM 29.2850 -82.6736 353° North 449 517 33,700 1,250 Climbing Jacksonville Center
Fri 09:45:35 PM 29.4083 -82.6900 353° North 444 511 34,000 150 Climbing Jacksonville Center
Fri 09:46:35 PM 29.5253 -82.6969 357° North 457 526 34,000 -50 Level Jacksonville Center
Fri 09:47:35 PM 29.6589 -82.6942 North 457 526 33,900  Descending Jacksonville Center
Fri 09:48:35 PM 29.7842 -82.6939 360° North 457 526 34,000 900 Climbing Jacksonville Center
Fri 09:49:35 PM 29.9114 -82.6914 North 451 519 35,700 1,700 Climbing Jacksonville Center
Fri 09:50:35 PM 30.0306 -82.6911 360° North 441 507 37,400 1,100 Climbing Jacksonville Center
Fri 09:51:35 PM 30.1411 -82.6619 13° North 441 507 37,900 500 Climbing Jacksonville Center
Fri 09:52:35 PM 30.2786 -82.6136 17° North 447 514 38,400 550 Climbing Jacksonville Center
Fri 09:53:35 PM 30.4061 -82.5675 17° North 459 528 39,000 300 Climbing Jacksonville Center
Fri 09:54:35 PM 30.5353 -82.5186 18° North 474 545 39,000  Level Jacksonville Center
Fri 09:55:35 PM 30.6689 -82.4675 18° North 485 558 39,000  Level Jacksonville Center
Fri 09:56:35 PM 30.8003 -82.4186 18° North 490 564 39,000 -50 Level Jacksonville Center
Fri 09:57:35 PM 30.9336 -82.3694 18° North 490 564 38,900 -300 Descending Jacksonville Center
Fri 09:58:35 PM 31.0650 -82.3203 18° North 490 564 38,400 -750 Descending Jacksonville Center
Fri 09:59:35 PM 31.1942 -82.2683 19° North 490 564 37,400 -750 Descending Jacksonville Center
Fri 10:00:35 PM 31.3192 -82.2189 19° North 484 557 36,900 -750 Descending Jacksonville Center
Fri 10:01:35 PM 31.4422 -82.1742 17° North 453 521 35,900 -950 Descending Jacksonville Center
Fri 10:02:35 PM 31.5672 -82.1269 18° North 466 536 35,000 -450 Descending Jacksonville Center
Fri 10:03:35 PM 31.6836 -82.0819 18° North 481 554 35,000  Level Jacksonville Center
Fri 10:04:35 PM 31.8233 -82.0269 18° North 481 554 35,000  Level Jacksonville Center
Fri 10:05:35 PM 31.9522 -81.9769 18° North 481 554 35,000  Level Jacksonville Center
Fri 10:06:35 PM 32.0689 -81.9242 21° North 487 560 35,000  Level Jacksonville Center
Fri 10:07:35 PM 32.2103 -81.8589 21° North 492 566 35,000  Level Jacksonville Center
Fri 10:08:35 PM 32.3372 -81.7983 22° Northeast 492 566 35,000  Level Jacksonville Center
Fri 10:09:35 PM 32.4536 -81.7403 23° Northeast 492 566 35,000  Level Jacksonville Center
Fri 10:10:35 PM 32.5950 -81.6744 21° North 492 566 35,000  Level Jacksonville Center
Fri 10:11:35 PM 32.7114 -81.6186 22° Northeast 498 573 35,000  Level Jacksonville Center
Fri 10:12:35 PM 32.8400 -81.5550 23° Northeast 498 573 35,000  Level Jacksonville Center
Fri 10:13:35 PM 32.9708 -81.4936 21° North 498 573 35,000  Level Jacksonville Center
Fri 10:14:35 PM 33.1036 -81.4294 22° Northeast 498 573 35,000  Level Jacksonville Center
Fri 10:15:35 PM 33.2447 -81.3578 23° Northeast 498 573 35,000  Level Jacksonville Center
Fri 10:16:35 PM 33.3564 -81.2761 31° Northeast 503 579 35,000 -50 Level Jacksonville Center
Fri 10:17:35 PM 33.4742 -81.1694 37° Northeast 517 595 34,900 -50 Descending Jacksonville Center
Fri 10:18:35 PM 33.5914 -81.0625 37° Northeast 523 602 34,900 50 Level Jacksonville Center
Fri 10:19:35 PM 33.7108 -80.9550 37° Northeast 528 608 35,000 50 Climbing Jacksonville Center
Fri 10:20:35 PM 33.8303 -80.8450 37° Northeast 533 613 35,000  Level Jacksonville Center
Fri 10:21:35 PM 33.9453 -80.7397 37° Northeast 533 613 35,000 -50 Level Jacksonville Center
Fri 10:22:35 PM 34.0664 -80.6289 37° Northeast 533 613 34,900  Descending Jacksonville Center
Fri 10:24:37 PM 34.3172 -80.3944 38° Northeast 535 616 35,000 33 Climbing Washington Center
Fri 10:25:38 PM 34.4364 -80.2831 38° Northeast 535 616 35,000  Level Washington Center
Fri 10:26:38 PM 34.5556 -80.1714 38° Northeast 535 616 35,000  Level Washington Center
Fri 10:27:38 PM 34.6661 -80.0664 38° Northeast 535 616 35,000  Level Washington Center
Fri 10:28:39 PM 34.8000 -79.9447 37° Northeast 541 623 35,000  Level Washington Center
Fri 10:29:37 PM 34.9228 -79.8325 37° Northeast 546 628 35,000  Level Washington Center
Fri 10:30:38 PM 35.0394 -79.7192 38° Northeast 546 628 35,000  Level Washington Center
Fri 10:31:38 PM 35.1622 -79.6061 37° Northeast 546 628 35,000  Level Washington Center
Fri 10:32:39 PM 35.2928 -79.5083 31° Northeast 546 628 35,000  Level Washington Center
Fri 10:33:38 PM 35.4211 -79.4153 31° Northeast 541 623 35,000  Level Washington Center
Fri 10:34:39 PM 35.5514 -79.3219 30° Northeast 536 617 35,000  Level Washington Center
Fri 10:35:39 PM 35.6667 -79.2378 31° Northeast 536 617 35,000  Level Washington Center
Fri 10:36:37 PM 35.7925 -79.1464 30° Northeast 536 617 35,000  Level Washington Center
Fri 10:37:38 PM 35.9225 -79.0494 31° Northeast 531 611 35,000  Level Washington Center
Fri 10:38:38 PM 36.0483 -78.9575 31° Northeast 531 611 35,000  Level Washington Center
Fri 10:39:39 PM 36.1783 -78.8600 31° Northeast 531 611 35,000  Level Washington Center
Fri 10:40:37 PM 36.3039 -78.7647 31° Northeast 531 611 35,000  Level Washington Center
Fri 10:41:39 PM 36.4317 -78.6692 31° Northeast 531 611 35,000 -98 Level Washington Center
Fri 10:42:39 PM 36.5569 -78.5758 31° Northeast 525 604 34,800 -458 Descending Washington Center
Fri 10:43:37 PM 36.6911 -78.4697 32° Northeast 525 604 34,100 -397 Descending Washington Center
Fri 10:44:40 PM 36.7972 -78.3906 31° Northeast 514 592 34,000 -50 Descending Washington Center
Fri 10:45:37 PM 36.9161 -78.3014 31° Northeast 504 580 34,000  Level Washington Center
Fri 10:46:39 PM 37.0392 -78.2069 31° Northeast 504 580 34,000  Level Washington Center
Fri 10:47:40 PM 37.1539 -78.1169 32° Northeast 499 574 34,000  Level Washington Center
Fri 10:48:37 PM 37.2747 -78.0244 31° Northeast 499 574 34,000  Level Washington Center
Fri 10:49:38 PM 37.3956 -77.9314 31° Northeast 504 580 34,000  Level Washington Center
Fri 10:50:37 PM 37.5139 -77.8408 31° Northeast 504 580 34,000  Level Washington Center
Fri 10:51:37 PM 37.6306 -77.7367 35° Northeast 504 580 34,000  Level Washington Center
Fri 10:52:38 PM 37.7450 -77.6325 36° Northeast 504 580 34,000  Level Washington Center
Fri 10:53:38 PM 37.8572 -77.5275 36° Northeast 499 574 34,000  Level Washington Center
Fri 10:54:38 PM 37.9717 -77.4250 35° Northeast 499 574 34,000  Level Washington Center
Fri 10:55:39 PM 38.0878 -77.3225 35° Northeast 504 580 34,000  Level Washington Center
Fri 10:56:39 PM 38.1997 -77.2142 37° Northeast 504 580 34,000  Level Washington Center
Fri 10:57:39 PM 38.3181 -77.1056 36° Northeast 509 586 34,000  Level Washington Center
Fri 10:58:39 PM 38.4339 -76.9992 36° Northeast 509 586 34,000  Level Washington Center
Fri 10:59:39 PM 38.5519 -76.8897 36° Northeast 514 592 34,000  Level Washington Center
Fri 11:00:37 PM 38.6678 -76.7803 36° Northeast 514 592 34,000  Level Washington Center
Fri 11:01:38 PM 38.7794 -76.6622 39° Northeast 514 592 34,000  Level Washington Center
Fri 11:02:37 PM 38.8889 -76.5358 42° Northeast 514 592 34,000 -252 Level Washington Center
Fri 11:03:37 PM 38.9961 -76.4117 42° Northeast 514 592 33,500 -1,686 Descending Washington Center
Fri 11:04:38 PM 39.1053 -76.2844 42° Northeast 520 598 30,600 -2,700 Descending Washington Center
Fri 11:05:37 PM 39.2100 -76.1622 42° Northeast 515 593 28,100 -1,850 Descending Washington Center
Fri 11:06:38 PM 39.3086 -76.0450 43° Northeast 505 581 26,900 -550 Descending Washington Center
Fri 11:07:37 PM 39.4089 -75.9272 42° Northeast 484 557 27,000 -150 Climbing Washington Center
Fri 11:08:38 PM 39.5072 -75.8122 42° Northeast 479 551 26,600 -1,350 Descending Washington Center
Fri 11:09:37 PM 39.6031 -75.6967 43° Northeast 473 544 24,300 -2,300 Descending Washington Center
Fri 11:10:38 PM 39.6969 -75.5861 42° Northeast 467 537 22,000 -2,164 Descending Washington Center
Fri 11:11:39 PM 39.7947 -75.4700 42° Northeast 449 517 19,900 -2,218 Descending Washington Center
Fri 11:12:37 PM 39.8800 -75.3672 43° Northeast 435 501 17,600 -2,269 Descending Washington Center
Fri 11:13:38 PM 39.9631 -75.2667 43° Northeast 413 475 15,400 -2,132 Descending Washington Center
Fri 11:14:38 PM 40.0419 -75.1686 44° Northeast 399 459 13,300 -2,118 Descending Washington Center
Fri 11:15:37 PM 40.1208 -75.0733 43° Northeast 394 453 11,200 -1,856 Descending Washington Center
Fri 11:16:15 PM 40.1667 -75.0167 43° Northeast 369 425 10,300 -1,109 Descending New York TRACON
Fri 11:17:09 PM 40.2333 -74.9333 44° Northeast 325 374 9,500 -1,211 Descending New York TRACON
Fri 11:18:09 PM 40.2833 -74.8500 52° Northeast 314 361 8,000 -1,190 Descending New York TRACON
Fri 11:19:15 PM 40.3500 -74.7667 44° Northeast 309 356 7,000 -1,143 Descending New York TRACON
Fri 11:20:15 PM 40.4167 -74.6833 44° Northeast 306 352 5,600 -952 Descending New York TRACON
Fri 11:21:21 PM 40.5000 -74.6500 17° North 272 313 5,000 -300 Descending New York TRACON
Fri 11:22:15 PM 40.5500 -74.6333 14° North 267 307 5,000  Level New York TRACON
Fri 11:23:15 PM 40.6333 -74.6167 North 271 312 5,000  Level New York TRACON
Fri 11:24:15 PM 40.7000 -74.6000 11° North 269 310 5,000 -500 Level New York TRACON
Fri 11:25:15 PM 40.7667 -74.5667 21° North 276 318 4,000 -500 Descending New York TRACON
Fri 11:26:15 PM 40.8333 -74.5167 30° Northeast 275 316 4,000  Level New York TRACON
Fri 11:27:09 PM 40.9000 -74.4500 37° Northeast 280 322 4,000 -50 Level New York TRACON
Fri 11:28:15 PM 40.9333 -74.3500 66° East 286 329 3,900 -350 Descending New York TRACON
Fri 11:29:09 PM 40.9500 -74.2667 75° East 259 298 3,300 -474 Descending New York TRACON
Fri 11:30:09 PM 40.9333 -74.1833 105° East 205 236 3,000 -150 Descending New York TRACON
Fri 11:31:09 PM 40.9167 -74.1333 114° Southeast 202 232 3,000  Level New York TRACON
Fri 11:32:15 PM 40.8667 -74.0833 143° Southeast 199 229 3,000  Level New York TRACON
Fri 11:33:15 PM 40.8333 -74.0833 180° South 184 212 3,000 -474 Level New York TRACON
Fri 11:34:09 PM 40.7833 -74.1000 194° South 180 207 2,100 -950 Descending New York TRACON
Fri 11:35:15 PM 40.7333 -74.1333 207° Southwest 149 171 1,100 -909 Descending New York TRACON

Login

Don't have an account? Register now (free) for customized features, flight alerts, and more!